sensor_id;sensor_type;location;lat;lon;timestamp;pressure;altitude;pressure_sealevel;temperature
70819;BMP280;58439;51.046;13.692;2023-03-20T00:02:23;100059.16;;;10.98
70819;BMP280;58439;51.046;13.692;2023-03-20T00:05:29;100053.53;;;10.94
70819;BMP280;58439;51.046;13.692;2023-03-20T00:07:58;100060.75;;;10.92
70819;BMP280;58439;51.046;13.692;2023-03-20T00:10:44;100065.38;;;10.90
70819;BMP280;58439;51.046;13.692;2023-03-20T00:13:21;100063.78;;;10.89
70819;BMP280;58439;51.046;13.692;2023-03-20T00:15:51;100062.75;;;10.90
70819;BMP280;58439;51.046;13.692;2023-03-20T00:18:21;100060.34;;;10.89
70819;BMP280;58439;51.046;13.692;2023-03-20T00:20:50;100068.38;;;10.87
70819;BMP280;58439;51.046;13.692;2023-03-20T00:23:19;100074.03;;;10.91
70819;BMP280;58439;51.046;13.692;2023-03-20T00:25:46;100067.16;;;10.90
70819;BMP280;58439;51.046;13.692;2023-03-20T00:28:33;100072.19;;;10.85
70819;BMP280;58439;51.046;13.692;2023-03-20T00:31:33;100066.31;;;10.76
70819;BMP280;58439;51.046;13.692;2023-03-20T00:34:12;100067.72;;;10.72
70819;BMP280;58439;51.046;13.692;2023-03-20T00:36:40;100069.09;;;10.68
70819;BMP280;58439;51.046;13.692;2023-03-20T00:39:10;100066.84;;;10.65
70819;BMP280;58439;51.046;13.692;2023-03-20T00:44:17;100062.00;;;10.62
70819;BMP280;58439;51.046;13.692;2023-03-20T00:46:54;100064.59;;;10.62
70819;BMP280;58439;51.046;13.692;2023-03-20T00:49:27;100071.81;;;10.60
70819;BMP280;58439;51.046;13.692;2023-03-20T00:51:55;100066.97;;;10.57
70819;BMP280;58439;51.046;13.692;2023-03-20T00:54:24;100069.00;;;10.55
70819;BMP280;58439;51.046;13.692;2023-03-20T00:56:59;100071.59;;;10.55
70819;BMP280;58439;51.046;13.692;2023-03-20T00:59:33;100061.94;;;10.55
70819;BMP280;58439;51.046;13.692;2023-03-20T01:02:01;100067.78;;;10.57
70819;BMP280;58439;51.046;13.692;2023-03-20T01:04:38;100064.16;;;10.58
70819;BMP280;58439;51.046;13.692;2023-03-20T01:07:12;100060.56;;;10.59
70819;BMP280;58439;51.046;13.692;2023-03-20T01:09:40;100070.19;;;10.59
70819;BMP280;58439;51.046;13.692;2023-03-20T01:12:11;100063.38;;;10.58
70819;BMP280;58439;51.046;13.692;2023-03-20T01:14:41;100062.34;;;10.59
70819;BMP280;58439;51.046;13.692;2023-03-20T01:17:19;100064.16;;;10.58
70819;BMP280;58439;51.046;13.692;2023-03-20T01:19:47;100058.13;;;10.58
70819;BMP280;58439;51.046;13.692;2023-03-20T01:22:14;100055.75;;;10.56
70819;BMP280;58439;51.046;13.692;2023-03-20T01:24:46;100062.34;;;10.59
70819;BMP280;58439;51.046;13.692;2023-03-20T01:27:18;100056.97;;;10.60
70819;BMP280;58439;51.046;13.692;2023-03-20T01:30:18;100055.16;;;10.61
70819;BMP280;58439;51.046;13.692;2023-03-20T01:32:43;100054.16;;;10.62
70819;BMP280;58439;51.046;13.692;2023-03-20T01:35:19;100057.97;;;10.66
70819;BMP280;58439;51.046;13.692;2023-03-20T01:37:48;100055.38;;;10.66
70819;BMP280;58439;51.046;13.692;2023-03-20T01:40:29;100058.41;;;10.69
70819;BMP280;58439;51.046;13.692;2023-03-20T01:42:59;100057.03;;;10.73
70819;BMP280;58439;51.046;13.692;2023-03-20T01:45:34;100061.09;;;10.76
70819;BMP280;58439;51.046;13.692;2023-03-20T01:48:18;100060.69;;;10.79
70819;BMP280;58439;51.046;13.692;2023-03-20T01:50:49;100061.53;;;10.80
70819;BMP280;58439;51.046;13.692;2023-03-20T01:53:24;100048.59;;;10.78
70819;BMP280;58439;51.046;13.692;2023-03-20T01:55:59;100053.84;;;10.78
70819;BMP280;58439;51.046;13.692;2023-03-20T01:58:43;100049.41;;;10.79
70819;BMP280;58439;51.046;13.692;2023-03-20T02:01:13;100062.69;;;10.77
70819;BMP280;58439;51.046;13.692;2023-03-20T02:03:47;100056.66;;;10.77
70819;BMP280;58439;51.046;13.692;2023-03-20T02:06:26;100055.84;;;10.76
70819;BMP280;58439;51.046;13.692;2023-03-20T02:09:13;100054.22;;;10.75
70819;BMP280;58439;51.046;13.692;2023-03-20T02:11:46;100056.03;;;10.74
70819;BMP280;58439;51.046;13.692;2023-03-20T02:14:18;100058.84;;;10.73
70819;BMP280;58439;51.046;13.692;2023-03-20T02:16:54;100060.44;;;10.74
70819;BMP280;58439;51.046;13.692;2023-03-20T02:23:07;100046.19;;;10.77
70819;BMP280;58439;51.046;13.692;2023-03-20T02:26:37;100053.88;;;10.85
70819;BMP280;58439;51.046;13.692;2023-03-20T02:35:41;100055.13;;;10.89
70819;BMP280;58439;51.046;13.692;2023-03-20T02:38:26;100058.53;;;10.89
70819;BMP280;58439;51.046;13.692;2023-03-20T02:41:29;100043.84;;;10.88
70819;BMP280;58439;51.046;13.692;2023-03-20T02:47:20;100056.66;;;10.83
70819;BMP280;58439;51.046;13.692;2023-03-20T02:50:34;100057.50;;;10.84
70819;BMP280;58439;51.046;13.692;2023-03-20T02:53:17;100057.50;;;10.84
70819;BMP280;58439;51.046;13.692;2023-03-20T02:56:18;100062.75;;;10.90
70819;BMP280;58439;51.046;13.692;2023-03-20T03:01:37;100057.16;;;10.93
70819;BMP280;58439;51.046;13.692;2023-03-20T03:04:08;100055.34;;;10.94
70819;BMP280;58439;51.046;13.692;2023-03-20T03:06:40;100054.91;;;10.90
70819;BMP280;58439;51.046;13.692;2023-03-20T03:09:18;100055.13;;;10.89
70819;BMP280;58439;51.046;13.692;2023-03-20T03:11:52;100053.06;;;10.84
70819;BMP280;58439;51.046;13.692;2023-03-20T03:14:46;100055.50;;;10.86
70819;BMP280;58439;51.046;13.692;2023-03-20T03:17:17;100059.72;;;10.87
70819;BMP280;58439;51.046;13.692;2023-03-20T03:19:52;100058.31;;;10.91
70819;BMP280;58439;51.046;13.692;2023-03-20T03:22:20;100051.28;;;10.91
70819;BMP280;58439;51.046;13.692;2023-03-20T03:24:51;100048.66;;;10.91
70819;BMP280;58439;51.046;13.692;2023-03-20T03:27:31;100043.41;;;10.91
70819;BMP280;58439;51.046;13.692;2023-03-20T03:30:12;100049.09;;;10.88
70819;BMP280;58439;51.046;13.692;2023-03-20T03:35:19;100045.84;;;10.86
70819;BMP280;58439;51.046;13.692;2023-03-20T03:37:56;100040.97;;;10.83
70819;BMP280;58439;51.046;13.692;2023-03-20T03:40:35;100045.22;;;10.84
70819;BMP280;58439;51.046;13.692;2023-03-20T03:43:22;100045.41;;;10.83
70819;BMP280;58439;51.046;13.692;2023-03-20T03:46:04;100036.16;;;10.80
70819;BMP280;58439;51.046;13.692;2023-03-20T03:48:39;100036.97;;;10.81
70819;BMP280;58439;51.046;13.692;2023-03-20T03:51:14;100044.97;;;10.79
70819;BMP280;58439;51.046;13.692;2023-03-20T03:54:21;100046.00;;;10.78
70819;BMP280;58439;51.046;13.692;2023-03-20T03:57:08;100049.78;;;10.75
70819;BMP280;58439;51.046;13.692;2023-03-20T03:59:38;100048.16;;;10.74
70819;BMP280;58439;51.046;13.692;2023-03-20T04:02:07;100044.97;;;10.72
70819;BMP280;58439;51.046;13.692;2023-03-20T04:04:38;100047.16;;;10.69
70819;BMP280;58439;51.046;13.692;2023-03-20T04:07:06;100049.94;;;10.67
70819;BMP280;58439;51.046;13.692;2023-03-20T04:09:33;100056.00;;;10.68
70819;BMP280;58439;51.046;13.692;2023-03-20T04:12:01;100042.50;;;10.64
70819;BMP280;58439;51.046;13.692;2023-03-20T04:14:28;100049.13;;;10.67
70819;BMP280;58439;51.046;13.692;2023-03-20T04:16:58;100045.78;;;10.73
70819;BMP280;58439;51.046;13.692;2023-03-20T04:19:26;100059.44;;;10.75
70819;BMP280;58439;51.046;13.692;2023-03-20T04:21:54;100052.66;;;10.81
70819;BMP280;58439;51.046;13.692;2023-03-20T04:24:21;100056.94;;;10.88
70819;BMP280;58439;51.046;13.692;2023-03-20T04:26:48;100050.09;;;10.94
70819;BMP280;58439;51.046;13.692;2023-03-20T04:29:15;100059.00;;;10.99
70819;BMP280;58439;51.046;13.692;2023-03-20T04:31:53;100055.97;;;11.02
70819;BMP280;58439;51.046;13.692;2023-03-20T04:34:34;100057.78;;;11.02
70819;BMP280;58439;51.046;13.692;2023-03-20T04:37:07;100058.16;;;10.99
70819;BMP280;58439;51.046;13.692;2023-03-20T04:39:45;100057.78;;;10.95
70819;BMP280;58439;51.046;13.692;2023-03-20T04:42:14;100057.94;;;10.94
70819;BMP280;58439;51.046;13.692;2023-03-20T04:44:42;100053.88;;;10.91
70819;BMP280;58439;51.046;13.692;2023-03-20T04:47:09;100058.75;;;10.88
70819;BMP280;58439;51.046;13.692;2023-03-20T04:49:40;100057.31;;;10.85
70819;BMP280;58439;51.046;13.692;2023-03-20T04:52:07;100058.69;;;10.81
70819;BMP280;58439;51.046;13.692;2023-03-20T04:54:37;100060.69;;;10.79
70819;BMP280;58439;51.046;13.692;2023-03-20T04:57:05;100066.91;;;10.78
70819;BMP280;58439;51.046;13.692;2023-03-20T04:59:32;100069.53;;;10.78
70819;BMP280;58439;51.046;13.692;2023-03-20T05:02:00;100072.16;;;10.78
70819;BMP280;58439;51.046;13.692;2023-03-20T05:04:27;100073.78;;;10.79
70819;BMP280;58439;51.046;13.692;2023-03-20T05:06:55;100072.00;;;10.80
70819;BMP280;58439;51.046;13.692;2023-03-20T05:09:28;100077.22;;;10.80
70819;BMP280;58439;51.046;13.692;2023-03-20T05:12:00;100079.41;;;10.83
70819;BMP280;58439;51.046;13.692;2023-03-20T05:14:35;100086.44;;;10.82
70819;BMP280;58439;51.046;13.692;2023-03-20T05:17:22;100095.31;;;10.81
70819;BMP280;58439;51.046;13.692;2023-03-20T05:20:13;100092.50;;;10.83
70819;BMP280;58439;51.046;13.692;2023-03-20T05:23:04;100088.50;;;10.87
70819;BMP280;58439;51.046;13.692;2023-03-20T05:25:50;100095.38;;;10.88
70819;BMP280;58439;51.046;13.692;2023-03-20T05:28:30;100102.63;;;10.92
70819;BMP280;58439;51.046;13.692;2023-03-20T05:31:09;100104.69;;;10.97
70819;BMP280;58439;51.046;13.692;2023-03-20T05:33:58;100105.47;;;10.97
70819;BMP280;58439;51.046;13.692;2023-03-20T05:36:36;100108.72;;;10.99
70819;BMP280;58439;51.046;13.692;2023-03-20T05:39:24;100114.97;;;11.05
70819;BMP280;58439;51.046;13.692;2023-03-20T05:42:18;100116.84;;;11.11
70819;BMP280;58439;51.046;13.692;2023-03-20T05:44:59;100108.19;;;11.17
70819;BMP280;58439;51.046;13.692;2023-03-20T05:47:45;100119.09;;;11.21
70819;BMP280;58439;51.046;13.692;2023-03-20T05:50:31;100122.13;;;11.24
70819;BMP280;58439;51.046;13.692;2023-03-20T05:53:16;100124.16;;;11.29
70819;BMP280;58439;51.046;13.692;2023-03-20T05:55:53;100133.84;;;11.28
70819;BMP280;58439;51.046;13.692;2023-03-20T05:58:38;100132.59;;;11.24
70819;BMP280;58439;51.046;13.692;2023-03-20T06:01:14;100133.78;;;11.22
70819;BMP280;58439;51.046;13.692;2023-03-20T06:04:05;100128.94;;;11.19
70819;BMP280;58439;51.046;13.692;2023-03-20T06:06:59;100128.94;;;11.19
70819;BMP280;58439;51.046;13.692;2023-03-20T06:09:27;100135.19;;;11.18
70819;BMP280;58439;51.046;13.692;2023-03-20T06:11:56;100134.00;;;11.20
70819;BMP280;58439;51.046;13.692;2023-03-20T06:14:23;100129.78;;;11.26
70819;BMP280;58439;51.046;13.692;2023-03-20T06:16:56;100141.47;;;11.30
70819;BMP280;58439;51.046;13.692;2023-03-20T06:19:30;100137.31;;;11.36
70819;BMP280;58439;51.046;13.692;2023-03-20T06:22:03;100137.53;;;11.41
70819;BMP280;58439;51.046;13.692;2023-03-20T06:24:32;100139.13;;;11.42
70819;BMP280;58439;51.046;13.692;2023-03-20T06:26:59;100138.78;;;11.51
70819;BMP280;58439;51.046;13.692;2023-03-20T06:29:26;100146.22;;;11.48
70819;BMP280;58439;51.046;13.692;2023-03-20T06:32:06;100145.41;;;11.54
70819;BMP280;58439;51.046;13.692;2023-03-20T06:34:33;100149.69;;;11.62
70819;BMP280;58439;51.046;13.692;2023-03-20T06:37:01;100141.81;;;11.62
70819;BMP280;58439;51.046;13.692;2023-03-20T06:39:28;100151.09;;;11.57
70819;BMP280;58439;51.046;13.692;2023-03-20T06:41:55;100145.66;;;11.59
70819;BMP280;58439;51.046;13.692;2023-03-20T06:44:24;100148.50;;;11.64
70819;BMP280;58439;51.046;13.692;2023-03-20T06:47:22;100148.94;;;11.81
70819;BMP280;58439;51.046;13.692;2023-03-20T06:49:50;100147.75;;;11.83
70819;BMP280;58439;51.046;13.692;2023-03-20T06:52:19;100149.38;;;12.04
70819;BMP280;58439;51.046;13.692;2023-03-20T06:55:11;100148.19;;;12.33
70819;BMP280;58439;51.046;13.692;2023-03-20T06:57:38;100141.75;;;12.62
70819;BMP280;58439;51.046;13.692;2023-03-20T07:00:06;100145.94;;;12.77
70819;BMP280;58439;51.046;13.692;2023-03-20T07:02:33;100139.25;;;12.87
70819;BMP280;58439;51.046;13.692;2023-03-20T07:05:01;100141.06;;;13.00
70819;BMP280;58439;51.046;13.692;2023-03-20T07:07:31;100137.63;;;12.99
70819;BMP280;58439;51.046;13.692;2023-03-20T07:09:58;100138.00;;;13.10
70819;BMP280;58439;51.046;13.692;2023-03-20T07:12:26;100143.69;;;13.13
70819;BMP280;58439;51.046;13.692;2023-03-20T07:14:59;100143.78;;;13.31
70819;BMP280;58439;51.046;13.692;2023-03-20T07:17:27;100139.91;;;13.41
70819;BMP280;58439;51.046;13.692;2023-03-20T07:19:54;100144.31;;;13.47
70819;BMP280;58439;51.046;13.692;2023-03-20T07:22:27;100137.00;;;13.55
70819;BMP280;58439;51.046;13.692;2023-03-20T07:25:10;100139.00;;;13.60
70819;BMP280;58439;51.046;13.692;2023-03-20T07:27:37;100139.47;;;13.82
70819;BMP280;58439;51.046;13.692;2023-03-20T07:30:12;100148.13;;;13.96
70819;BMP280;58439;51.046;13.692;2023-03-20T07:32:39;100152.06;;;14.05
70819;BMP280;58439;51.046;13.692;2023-03-20T07:35:09;100153.13;;;14.22
70819;BMP280;58439;51.046;13.692;2023-03-20T07:37:41;100158.09;;;14.37
70819;BMP280;58439;51.046;13.692;2023-03-20T07:40:09;100156.59;;;14.47
70819;BMP280;58439;51.046;13.692;2023-03-20T07:42:44;100167.03;;;14.54
70819;BMP280;58439;51.046;13.692;2023-03-20T07:45:13;100163.13;;;14.63
70819;BMP280;58439;51.046;13.692;2023-03-20T07:47:44;100161.91;;;14.84
70819;BMP280;58439;51.046;13.692;2023-03-20T07:50:11;100166.97;;;15.04
70819;BMP280;58439;51.046;13.692;2023-03-20T07:52:48;100167.44;;;15.13
70819;BMP280;58439;51.046;13.692;2023-03-20T07:55:16;100167.28;;;14.89
70819;BMP280;58439;51.046;13.692;2023-03-20T07:57:47;100171.75;;;14.70
70819;BMP280;58439;51.046;13.692;2023-03-20T08:00:16;100168.88;;;14.54
70819;BMP280;58439;51.046;13.692;2023-03-20T08:02:43;100176.41;;;14.50
70819;BMP280;58439;51.046;13.692;2023-03-20T08:05:11;100171.03;;;14.38
70819;BMP280;58439;51.046;13.692;2023-03-20T08:07:38;100166.34;;;14.40
70819;BMP280;58439;51.046;13.692;2023-03-20T08:10:08;100168.50;;;14.50
70819;BMP280;58439;51.046;13.692;2023-03-20T08:12:35;100165.78;;;14.63
70819;BMP280;58439;51.046;13.692;2023-03-20T08:15:05;100163.47;;;14.48
70819;BMP280;58439;51.046;13.692;2023-03-20T08:17:33;100170.28;;;14.56
70819;BMP280;58439;51.046;13.692;2023-03-20T08:20:01;100170.22;;;14.63
70819;BMP280;58439;51.046;13.692;2023-03-20T08:22:29;100180.03;;;14.74
70819;BMP280;58439;51.046;13.692;2023-03-20T08:24:56;100187.72;;;14.75
70819;BMP280;58439;51.046;13.692;2023-03-20T08:27:24;100176.94;;;14.59
70819;BMP280;58439;51.046;13.692;2023-03-20T08:29:51;100183.00;;;14.34
70819;BMP280;58439;51.046;13.692;2023-03-20T08:32:19;100180.72;;;14.20
70819;BMP280;58439;51.046;13.692;2023-03-20T08:34:50;100183.00;;;14.34
70819;BMP280;58439;51.046;13.692;2023-03-20T08:37:18;100182.16;;;14.40
70819;BMP280;58439;51.046;13.692;2023-03-20T08:39:45;100180.28;;;14.66
70819;BMP280;58439;51.046;13.692;2023-03-20T08:42:15;100180.56;;;14.83
70819;BMP280;58439;51.046;13.692;2023-03-20T08:44:43;100182.19;;;15.02
70819;BMP280;58439;51.046;13.692;2023-03-20T08:47:10;100184.13;;;15.25
70819;BMP280;58439;51.046;13.692;2023-03-20T08:49:37;100185.03;;;15.19
70819;BMP280;58439;51.046;13.692;2023-03-20T08:52:05;100187.66;;;15.00
70819;BMP280;58439;51.046;13.692;2023-03-20T08:54:32;100185.09;;;14.75
70819;BMP280;58439;51.046;13.692;2023-03-20T08:57:00;100185.47;;;14.54
70819;BMP280;58439;51.046;13.692;2023-03-20T08:59:27;100201.16;;;14.42
70819;BMP280;58439;51.046;13.692;2023-03-20T09:01:54;100201.66;;;14.33
70819;BMP280;58439;51.046;13.692;2023-03-20T09:04:21;100196.16;;;14.34
70819;BMP280;58439;51.046;13.692;2023-03-20T09:06:48;100192.56;;;14.54
70819;BMP280;58439;51.046;13.692;2023-03-20T09:09:17;100203.69;;;14.56
70819;BMP280;58439;51.046;13.692;2023-03-20T09:11:46;100199.34;;;14.68
70819;BMP280;58439;51.046;13.692;2023-03-20T09:14:13;100200.13;;;14.68
70819;BMP280;58439;51.046;13.692;2023-03-20T09:16:41;100200.91;;;14.75
70819;BMP280;58439;51.046;13.692;2023-03-20T09:19:08;100194.81;;;14.93
70819;BMP280;58439;51.046;13.692;2023-03-20T09:21:35;100194.16;;;14.98
70819;BMP280;58439;51.046;13.692;2023-03-20T09:24:02;100196.34;;;14.83
70819;BMP280;58439;51.046;13.692;2023-03-20T09:26:29;100202.72;;;14.93
70819;BMP280;58439;51.046;13.692;2023-03-20T09:28:57;100199.81;;;15.20
70819;BMP280;58439;51.046;13.692;2023-03-20T09:31:24;100190.50;;;15.17
70819;BMP280;58439;51.046;13.692;2023-03-20T09:33:51;100193.03;;;15.05
70819;BMP280;58439;51.046;13.692;2023-03-20T09:36:20;100199.16;;;15.06
70819;BMP280;58439;51.046;13.692;2023-03-20T09:38:47;100197.78;;;15.22
70819;BMP280;58439;51.046;13.692;2023-03-20T09:41:22;100207.38;;;15.46
70819;BMP280;58439;51.046;13.692;2023-03-20T09:47:12;100208.88;;;15.42
70819;BMP280;58439;51.046;13.692;2023-03-20T09:50:14;100216.63;;;15.37
70819;BMP280;58439;51.046;13.692;2023-03-20T09:52:57;100215.97;;;15.42
70819;BMP280;58439;51.046;13.692;2023-03-20T09:55:35;100221.75;;;15.32
70819;BMP280;58439;51.046;13.692;2023-03-20T09:58:15;100229.34;;;15.40
70819;BMP280;58439;51.046;13.692;2023-03-20T10:00:45;100228.50;;;15.28
70819;BMP280;58439;51.046;13.692;2023-03-20T10:04:04;100223.81;;;15.30
70819;BMP280;58439;51.046;13.692;2023-03-20T10:06:33;100220.56;;;15.46
70819;BMP280;58439;51.046;13.692;2023-03-20T10:09:01;100225.09;;;15.57
70819;BMP280;58439;51.046;13.692;2023-03-20T10:17:45;100219.78;;;16.17
70819;BMP280;58439;51.046;13.692;2023-03-20T10:20:32;100225.16;;;16.22
70819;BMP280;58439;51.046;13.692;2023-03-20T10:23:15;100221.97;;;16.55
70819;BMP280;58439;51.046;13.692;2023-03-20T10:25:49;100221.84;;;16.85
70819;BMP280;58439;51.046;13.692;2023-03-20T10:28:21;100227.94;;;16.98
70819;BMP280;58439;51.046;13.692;2023-03-20T10:33:40;100211.91;;;17.16
70819;BMP280;58439;51.046;13.692;2023-03-20T10:36:43;100211.84;;;17.68
70819;BMP280;58439;51.046;13.692;2023-03-20T10:41:55;100212.88;;;17.67
70819;BMP280;58439;51.046;13.692;2023-03-20T10:44:30;100218.47;;;17.25
70819;BMP280;58439;51.046;13.692;2023-03-20T10:47:00;100217.47;;;17.03
70819;BMP280;58439;51.046;13.692;2023-03-20T10:49:57;100218.34;;;16.57
70819;BMP280;58439;51.046;13.692;2023-03-20T10:52:28;100223.09;;;16.13
70819;BMP280;58439;51.046;13.692;2023-03-20T10:55:03;100213.44;;;16.07
70819;BMP280;58439;51.046;13.692;2023-03-20T10:57:35;100215.38;;;16.11
70819;BMP280;58439;51.046;13.692;2023-03-20T11:00:04;100219.97;;;16.04
70819;BMP280;58439;51.046;13.692;2023-03-20T11:02:31;100212.06;;;16.04
70819;BMP280;58439;51.046;13.692;2023-03-20T11:05:10;100217.91;;;16.06
70819;BMP280;58439;51.046;13.692;2023-03-20T11:07:50;100210.13;;;16.23
70819;BMP280;58439;51.046;13.692;2023-03-20T11:10:25;100223.56;;;17.15
70819;BMP280;58439;51.046;13.692;2023-03-20T11:12:53;100203.94;;;17.39
70819;BMP280;58439;51.046;13.692;2023-03-20T11:15:30;100213.69;;;16.99
70819;BMP280;58439;51.046;13.692;2023-03-20T11:18:05;100212.22;;;16.33
70819;BMP280;58439;51.046;13.692;2023-03-20T11:20:46;100218.13;;;15.93
70819;BMP280;58439;51.046;13.692;2023-03-20T11:23:16;100211.00;;;15.63
70819;BMP280;58439;51.046;13.692;2023-03-20T11:25:51;100213.97;;;15.55
70819;BMP280;58439;51.046;13.692;2023-03-20T11:28:26;100212.31;;;15.73
70819;BMP280;58439;51.046;13.692;2023-03-20T11:30:58;100211.28;;;15.74
70819;BMP280;58439;51.046;13.692;2023-03-20T11:33:33;100209.09;;;15.71
70819;BMP280;58439;51.046;13.692;2023-03-20T11:36:09;100207.91;;;15.55
70819;BMP280;58439;51.046;13.692;2023-03-20T11:38:43;100203.09;;;15.63
70819;BMP280;58439;51.046;13.692;2023-03-20T11:41:25;100189.50;;;15.78
70819;BMP280;58439;51.046;13.692;2023-03-20T11:43:53;100196.47;;;16.03
70819;BMP280;58439;51.046;13.692;2023-03-20T11:46:22;100190.38;;;16.02
70819;BMP280;58439;51.046;13.692;2023-03-20T11:49:14;100195.72;;;15.95
70819;BMP280;58439;51.046;13.692;2023-03-20T11:51:44;100189.66;;;15.95
70819;BMP280;58439;51.046;13.692;2023-03-20T11:54:18;100198.72;;;15.87
70819;BMP280;58439;51.046;13.692;2023-03-20T11:56:57;100190.19;;;15.74
70819;BMP280;58439;51.046;13.692;2023-03-20T11:59:32;100190.03;;;15.69
70819;BMP280;58439;51.046;13.692;2023-03-20T12:02:03;100196.69;;;15.59
70819;BMP280;58439;51.046;13.692;2023-03-20T12:04:33;100186.84;;;15.67
70819;BMP280;58439;51.046;13.692;2023-03-20T12:07:20;100182.81;;;15.64
70819;BMP280;58439;51.046;13.692;2023-03-20T12:09:53;100181.50;;;15.85
70819;BMP280;58439;51.046;13.692;2023-03-20T12:15:33;100177.63;;;15.87
70819;BMP280;58439;51.046;13.692;2023-03-20T12:18:11;100177.56;;;15.76
70819;BMP280;58439;51.046;13.692;2023-03-20T12:20:53;100176.03;;;15.68
70819;BMP280;58439;51.046;13.692;2023-03-20T12:23:35;100172.25;;;15.64
70819;BMP280;58439;51.046;13.692;2023-03-20T12:26:04;100172.44;;;15.51
70819;BMP280;58439;51.046;13.692;2023-03-20T12:34:02;100176.00;;;14.71
70819;BMP280;58439;51.046;13.692;2023-03-20T12:36:34;100166.75;;;14.44
70819;BMP280;58439;51.046;13.692;2023-03-20T12:39:04;100169.72;;;14.23
70819;BMP280;58439;51.046;13.692;2023-03-20T12:41:39;100170.22;;;14.13
70819;BMP280;58439;51.046;13.692;2023-03-20T12:58:55;100162.44;;;16.48
70819;BMP280;58439;51.046;13.692;2023-03-20T13:01:29;100163.34;;;17.05
70819;BMP280;58439;51.046;13.692;2023-03-20T13:06:59;100154.03;;;16.91
70819;BMP280;58439;51.046;13.692;2023-03-20T13:12:25;100146.22;;;16.09
70819;BMP280;58439;51.046;13.692;2023-03-20T13:15:18;100142.56;;;15.69
70819;BMP280;58439;51.046;13.692;2023-03-20T13:17:54;100137.84;;;15.29
70819;BMP280;58439;51.046;13.692;2023-03-20T13:20:25;100142.25;;;15.35
70819;BMP280;58439;51.046;13.692;2023-03-20T13:23:09;100138.56;;;15.36
70819;BMP280;58439;51.046;13.692;2023-03-20T13:26:24;100131.63;;;15.42
70819;BMP280;58439;51.046;13.692;2023-03-20T13:41:56;100119.16;;;14.82
70819;BMP280;58439;51.046;13.692;2023-03-20T13:44:27;100118.22;;;14.76
70819;BMP280;58439;51.046;13.692;2023-03-20T13:47:10;100122.69;;;14.76
70819;BMP280;58439;51.046;13.692;2023-03-20T13:49:42;100118.06;;;14.71
70819;BMP280;58439;51.046;13.692;2023-03-20T13:52:15;100108.66;;;14.64
70819;BMP280;58439;51.046;13.692;2023-03-20T13:54:55;100113.59;;;14.54
70819;BMP280;58439;51.046;13.692;2023-03-20T14:00:46;100122.19;;;14.42
70819;BMP280;58439;51.046;13.692;2023-03-20T14:05:50;100114.47;;;14.23
70819;BMP280;58439;51.046;13.692;2023-03-20T14:08:31;100124.16;;;14.04
70819;BMP280;58439;51.046;13.692;2023-03-20T14:11:12;100125.41;;;14.01
70819;BMP280;58439;51.046;13.692;2023-03-20T14:13:48;100120.94;;;14.02
70819;BMP280;58439;51.046;13.692;2023-03-20T14:16:17;100107.19;;;14.00
70819;BMP280;58439;51.046;13.692;2023-03-20T14:19:06;100117.72;;;14.00
70819;BMP280;58439;51.046;13.692;2023-03-20T14:21:34;100114.31;;;13.93
70819;BMP280;58439;51.046;13.692;2023-03-20T14:24:04;100119.47;;;13.81
70819;BMP280;58439;51.046;13.692;2023-03-20T14:26:37;100112.88;;;13.72
70819;BMP280;58439;51.046;13.692;2023-03-20T14:31:41;100127.34;;;13.49
70819;BMP280;58439;51.046;13.692;2023-03-20T14:37:23;100122.53;;;13.40
70819;BMP280;58439;51.046;13.692;2023-03-20T14:40:02;100129.66;;;13.33
70819;BMP280;58439;51.046;13.692;2023-03-20T14:42:53;100130.28;;;13.21
70819;BMP280;58439;51.046;13.692;2023-03-20T14:45:41;100128.72;;;13.07
70819;BMP280;58439;51.046;13.692;2023-03-20T14:51:00;100118.72;;;12.78
70819;BMP280;58439;51.046;13.692;2023-03-20T14:53:30;100114.88;;;12.67
70819;BMP280;58439;51.046;13.692;2023-03-20T14:56:09;100107.81;;;12.61
70819;BMP280;58439;51.046;13.692;2023-03-20T14:58:48;100109.88;;;12.59
70819;BMP280;58439;51.046;13.692;2023-03-20T15:06:26;100122.38;;;12.37
70819;BMP280;58439;51.046;13.692;2023-03-20T15:08:57;100123.38;;;12.29
70819;BMP280;58439;51.046;13.692;2023-03-20T15:11:25;100123.19;;;12.24
70819;BMP280;58439;51.046;13.692;2023-03-20T15:13:54;100127.63;;;12.10
70819;BMP280;58439;51.046;13.692;2023-03-20T15:16:28;100125.56;;;12.06
70819;BMP280;58439;51.046;13.692;2023-03-20T15:18:56;100124.22;;;12.10
70819;BMP280;58439;51.046;13.692;2023-03-20T15:21:36;100122.59;;;12.15
70819;BMP280;58439;51.046;13.692;2023-03-20T15:24:07;100109.06;;;12.19
70819;BMP280;58439;51.046;13.692;2023-03-20T15:26:34;100116.13;;;12.18
70819;BMP280;58439;51.046;13.692;2023-03-20T15:29:07;100119.97;;;12.15
70819;BMP280;58439;51.046;13.692;2023-03-20T15:31:38;100118.34;;;12.14
70819;BMP280;58439;51.046;13.692;2023-03-20T15:34:08;100113.91;;;12.08
70819;BMP280;58439;51.046;13.692;2023-03-20T15:36:38;100112.28;;;12.01
70819;BMP280;58439;51.046;13.692;2023-03-20T15:39:18;100105.81;;;11.97
70819;BMP280;58439;51.046;13.692;2023-03-20T15:41:50;100111.66;;;11.92
70819;BMP280;58439;51.046;13.692;2023-03-20T15:44:22;100109.63;;;11.81
70819;BMP280;58439;51.046;13.692;2023-03-20T15:49:18;100116.53;;;11.95
70819;BMP280;58439;51.046;13.692;2023-03-20T15:51:46;100105.63;;;11.98
70819;BMP280;58439;51.046;13.692;2023-03-20T15:54:18;100111.06;;;12.03
70819;BMP280;58439;51.046;13.692;2023-03-20T15:56:51;100112.28;;;12.07
70819;BMP280;58439;51.046;13.692;2023-03-20T15:59:21;100109.03;;;12.05
70819;BMP280;58439;51.046;13.692;2023-03-20T16:01:51;100114.09;;;12.00
70819;BMP280;58439;51.046;13.692;2023-03-20T16:04:19;100109.69;;;11.94
70819;BMP280;58439;51.046;13.692;2023-03-20T16:06:52;100114.66;;;11.89